sensor_id;sensor_type;location;lat;lon;timestamp;temperature;humidity
15131;DHT22;7666;50.920;4.628;2023-04-28T00:00:37;11.00;99.90
15131;DHT22;7666;50.920;4.628;2023-04-28T00:03:23;11.00;99.90
15131;DHT22;7666;50.920;4.628;2023-04-28T00:06:09;10.90;99.90
15131;DHT22;7666;50.920;4.628;2023-04-28T00:08:59;10.60;99.90
15131;DHT22;7666;50.920;4.628;2023-04-28T00:11:45;10.30;99.90
15131;DHT22;7666;50.920;4.628;2023-04-28T00:14:31;9.90;99.90
15131;DHT22;7666;50.920;4.628;2023-04-28T00:17:17;9.70;99.90
15131;DHT22;7666;50.920;4.628;2023-04-28T00:20:04;9.60;99.90
15131;DHT22;7666;50.920;4.628;2023-04-28T00:22:50;9.60;99.90
15131;DHT22;7666;50.920;4.628;2023-04-28T00:25:36;9.60;99.90
15131;DHT22;7666;50.920;4.628;2023-04-28T00:28:22;9.50;99.90
15131;DHT22;7666;50.920;4.628;2023-04-28T00:31:12;9.50;99.90
15131;DHT22;7666;50.920;4.628;2023-04-28T00:33:58;9.50;99.90
15131;DHT22;7666;50.920;4.628;2023-04-28T00:36:44;9.50;99.90
15131;DHT22;7666;50.920;4.628;2023-04-28T00:39:30;9.40;99.90
15131;DHT22;7666;50.920;4.628;2023-04-28T00:42:16;9.40;99.90
15131;DHT22;7666;50.920;4.628;2023-04-28T00:45:03;9.40;99.90
15131;DHT22;7666;50.920;4.628;2023-04-28T00:47:51;9.40;99.90
15131;DHT22;7666;50.920;4.628;2023-04-28T00:50:38;9.50;99.90
15131;DHT22;7666;50.920;4.628;2023-04-28T00:53:24;9.50;99.90
15131;DHT22;7666;50.920;4.628;2023-04-28T00:56:10;9.50;99.90
15131;DHT22;7666;50.920;4.628;2023-04-28T00:58:57;9.60;99.90
15131;DHT22;7666;50.920;4.628;2023-04-28T01:01:43;9.60;99.90
15131;DHT22;7666;50.920;4.628;2023-04-28T01:04:30;9.70;99.90
15131;DHT22;7666;50.920;4.628;2023-04-28T01:07:16;9.70;99.90
15131;DHT22;7666;50.920;4.628;2023-04-28T01:10:02;9.80;99.90
15131;DHT22;7666;50.920;4.628;2023-04-28T01:12:48;9.90;99.90
15131;DHT22;7666;50.920;4.628;2023-04-28T01:15:34;9.90;99.90
15131;DHT22;7666;50.920;4.628;2023-04-28T01:18:20;9.90;99.90
15131;DHT22;7666;50.920;4.628;2023-04-28T01:21:07;9.80;99.90
15131;DHT22;7666;50.920;4.628;2023-04-28T01:23:53;9.90;99.90
15131;DHT22;7666;50.920;4.628;2023-04-28T01:26:39;9.90;99.90
15131;DHT22;7666;50.920;4.628;2023-04-28T01:29:25;10.00;99.90
15131;DHT22;7666;50.920;4.628;2023-04-28T01:32:11;10.00;99.90
15131;DHT22;7666;50.920;4.628;2023-04-28T01:34:57;10.00;99.90
15131;DHT22;7666;50.920;4.628;2023-04-28T01:37:43;10.00;99.90
15131;DHT22;7666;50.920;4.628;2023-04-28T01:40:29;10.00;99.90
15131;DHT22;7666;50.920;4.628;2023-04-28T01:43:15;10.00;99.90
15131;DHT22;7666;50.920;4.628;2023-04-28T01:46:01;10.00;99.90
15131;DHT22;7666;50.920;4.628;2023-04-28T01:48:47;9.90;99.90
15131;DHT22;7666;50.920;4.628;2023-04-28T01:51:33;9.80;99.90
15131;DHT22;7666;50.920;4.628;2023-04-28T01:54:19;9.90;99.90
15131;DHT22;7666;50.920;4.628;2023-04-28T01:57:05;9.90;99.90
15131;DHT22;7666;50.920;4.628;2023-04-28T01:59:51;10.00;99.90
15131;DHT22;7666;50.920;4.628;2023-04-28T02:02:37;9.90;99.90
15131;DHT22;7666;50.920;4.628;2023-04-28T02:05:24;9.80;99.90
15131;DHT22;7666;50.920;4.628;2023-04-28T02:08:10;9.70;99.90
15131;DHT22;7666;50.920;4.628;2023-04-28T02:10:56;9.60;99.90
15131;DHT22;7666;50.920;4.628;2023-04-28T02:13:42;9.50;99.90
15131;DHT22;7666;50.920;4.628;2023-04-28T02:16:28;9.40;99.90
15131;DHT22;7666;50.920;4.628;2023-04-28T02:19:14;9.30;99.90
15131;DHT22;7666;50.920;4.628;2023-04-28T02:22:00;9.30;99.90
15131;DHT22;7666;50.920;4.628;2023-04-28T02:24:46;9.30;99.90
15131;DHT22;7666;50.920;4.628;2023-04-28T02:27:35;9.20;99.90
15131;DHT22;7666;50.920;4.628;2023-04-28T02:30:24;9.20;99.90
15131;DHT22;7666;50.920;4.628;2023-04-28T02:33:10;9.20;99.90
15131;DHT22;7666;50.920;4.628;2023-04-28T02:36:00;9.20;99.90
15131;DHT22;7666;50.920;4.628;2023-04-28T02:38:46;9.30;99.90
15131;DHT22;7666;50.920;4.628;2023-04-28T02:41:32;9.40;99.90
15131;DHT22;7666;50.920;4.628;2023-04-28T02:44:19;9.40;99.90
15131;DHT22;7666;50.920;4.628;2023-04-28T02:47:05;9.40;99.90
15131;DHT22;7666;50.920;4.628;2023-04-28T02:49:51;9.40;99.90
15131;DHT22;7666;50.920;4.628;2023-04-28T02:52:37;9.40;99.90
15131;DHT22;7666;50.920;4.628;2023-04-28T02:55:23;9.50;99.90
15131;DHT22;7666;50.920;4.628;2023-04-28T02:58:09;9.50;99.90
15131;DHT22;7666;50.920;4.628;2023-04-28T03:00:55;9.50;99.90
15131;DHT22;7666;50.920;4.628;2023-04-28T03:03:41;9.60;99.90
15131;DHT22;7666;50.920;4.628;2023-04-28T03:06:27;9.60;99.90
15131;DHT22;7666;50.920;4.628;2023-04-28T03:09:14;9.50;99.90
15131;DHT22;7666;50.920;4.628;2023-04-28T03:12:00;9.50;99.90
15131;DHT22;7666;50.920;4.628;2023-04-28T03:14:48;9.50;99.90
15131;DHT22;7666;50.920;4.628;2023-04-28T03:17:34;9.60;99.90
15131;DHT22;7666;50.920;4.628;2023-04-28T03:20:26;9.60;99.90
15131;DHT22;7666;50.920;4.628;2023-04-28T03:23:12;9.60;99.90
15131;DHT22;7666;50.920;4.628;2023-04-28T03:25:58;9.60;99.90
15131;DHT22;7666;50.920;4.628;2023-04-28T03:28:44;9.60;99.90
15131;DHT22;7666;50.920;4.628;2023-04-28T03:31:30;9.60;99.90
15131;DHT22;7666;50.920;4.628;2023-04-28T03:34:16;9.70;99.90
15131;DHT22;7666;50.920;4.628;2023-04-28T03:37:02;9.70;99.90
15131;DHT22;7666;50.920;4.628;2023-04-28T03:39:48;9.70;99.90
15131;DHT22;7666;50.920;4.628;2023-04-28T03:42:34;9.70;99.90
15131;DHT22;7666;50.920;4.628;2023-04-28T03:45:20;9.70;99.90
15131;DHT22;7666;50.920;4.628;2023-04-28T03:48:06;9.70;99.90
15131;DHT22;7666;50.920;4.628;2023-04-28T03:50:52;9.70;99.90
15131;DHT22;7666;50.920;4.628;2023-04-28T03:53:38;9.70;99.90
15131;DHT22;7666;50.920;4.628;2023-04-28T03:56:24;9.70;99.90
15131;DHT22;7666;50.920;4.628;2023-04-28T03:59:10;9.70;99.90
15131;DHT22;7666;50.920;4.628;2023-04-28T04:01:57;9.60;99.90
15131;DHT22;7666;50.920;4.628;2023-04-28T04:04:43;9.70;99.90
15131;DHT22;7666;50.920;4.628;2023-04-28T04:07:29;9.70;99.90
15131;DHT22;7666;50.920;4.628;2023-04-28T04:10:16;9.70;99.90
15131;DHT22;7666;50.920;4.628;2023-04-28T04:13:02;9.70;99.90
15131;DHT22;7666;50.920;4.628;2023-04-28T04:15:48;9.70;99.90
15131;DHT22;7666;50.920;4.628;2023-04-28T04:18:35;9.70;99.90
15131;DHT22;7666;50.920;4.628;2023-04-28T04:21:21;9.70;99.90
15131;DHT22;7666;50.920;4.628;2023-04-28T04:24:07;9.70;99.90
15131;DHT22;7666;50.920;4.628;2023-04-28T04:26:53;9.70;99.90
15131;DHT22;7666;50.920;4.628;2023-04-28T04:29:39;9.70;99.90
15131;DHT22;7666;50.920;4.628;2023-04-28T04:32:25;9.70;99.90
15131;DHT22;7666;50.920;4.628;2023-04-28T04:35:11;9.80;99.90
15131;DHT22;7666;50.920;4.628;2023-04-28T04:37:57;9.80;99.90
15131;DHT22;7666;50.920;4.628;2023-04-28T04:40:43;9.80;99.90
15131;DHT22;7666;50.920;4.628;2023-04-28T04:43:29;9.70;99.90
15131;DHT22;7666;50.920;4.628;2023-04-28T04:46:15;9.70;99.90
15131;DHT22;7666;50.920;4.628;2023-04-28T04:49:01;9.70;99.90
15131;DHT22;7666;50.920;4.628;2023-04-28T04:51:47;9.80;99.90
15131;DHT22;7666;50.920;4.628;2023-04-28T04:54:33;9.80;99.90
15131;DHT22;7666;50.920;4.628;2023-04-28T04:57:19;9.80;99.90
15131;DHT22;7666;50.920;4.628;2023-04-28T05:00:06;9.80;99.90
15131;DHT22;7666;50.920;4.628;2023-04-28T05:02:52;9.90;99.90
15131;DHT22;7666;50.920;4.628;2023-04-28T05:05:38;9.90;99.90
15131;DHT22;7666;50.920;4.628;2023-04-28T05:08:24;10.00;99.90
15131;DHT22;7666;50.920;4.628;2023-04-28T05:11:10;10.00;99.90
15131;DHT22;7666;50.920;4.628;2023-04-28T05:13:56;10.00;99.90
15131;DHT22;7666;50.920;4.628;2023-04-28T05:16:42;10.00;99.90
15131;DHT22;7666;50.920;4.628;2023-04-28T05:19:28;10.10;99.90
15131;DHT22;7666;50.920;4.628;2023-04-28T05:22:14;10.10;99.90
15131;DHT22;7666;50.920;4.628;2023-04-28T05:25:00;10.10;99.90
15131;DHT22;7666;50.920;4.628;2023-04-28T05:27:46;10.10;99.90
15131;DHT22;7666;50.920;4.628;2023-04-28T05:30:33;10.20;99.90
15131;DHT22;7666;50.920;4.628;2023-04-28T05:33:19;10.30;99.90
15131;DHT22;7666;50.920;4.628;2023-04-28T05:36:05;10.30;99.90
15131;DHT22;7666;50.920;4.628;2023-04-28T05:38:51;10.30;99.90
15131;DHT22;7666;50.920;4.628;2023-04-28T05:41:37;10.30;99.90
15131;DHT22;7666;50.920;4.628;2023-04-28T05:44:23;10.40;99.90
15131;DHT22;7666;50.920;4.628;2023-04-28T05:47:10;10.40;99.90
15131;DHT22;7666;50.920;4.628;2023-04-28T05:49:56;10.50;99.90
15131;DHT22;7666;50.920;4.628;2023-04-28T05:52:42;10.60;99.90
15131;DHT22;7666;50.920;4.628;2023-04-28T05:55:28;10.70;99.90
15131;DHT22;7666;50.920;4.628;2023-04-28T05:58:14;10.70;99.90
15131;DHT22;7666;50.920;4.628;2023-04-28T06:01:00;10.80;99.90
15131;DHT22;7666;50.920;4.628;2023-04-28T06:03:46;10.90;99.90
15131;DHT22;7666;50.920;4.628;2023-04-28T06:06:32;10.90;99.90
15131;DHT22;7666;50.920;4.628;2023-04-28T06:09:19;11.10;99.90
15131;DHT22;7666;50.920;4.628;2023-04-28T06:12:05;11.10;99.90
15131;DHT22;7666;50.920;4.628;2023-04-28T06:14:51;11.20;99.90
15131;DHT22;7666;50.920;4.628;2023-04-28T06:17:40;11.30;99.90
15131;DHT22;7666;50.920;4.628;2023-04-28T06:20:27;11.30;99.90
15131;DHT22;7666;50.920;4.628;2023-04-28T06:23:13;11.40;99.90
15131;DHT22;7666;50.920;4.628;2023-04-28T06:25:59;11.50;99.90
15131;DHT22;7666;50.920;4.628;2023-04-28T06:28:45;11.60;99.90
15131;DHT22;7666;50.920;4.628;2023-04-28T06:31:31;11.70;99.90
15131;DHT22;7666;50.920;4.628;2023-04-28T06:34:17;11.70;99.90
15131;DHT22;7666;50.920;4.628;2023-04-28T06:37:03;11.80;99.90
15131;DHT22;7666;50.920;4.628;2023-04-28T06:39:49;11.80;99.90
15131;DHT22;7666;50.920;4.628;2023-04-28T06:42:35;11.90;99.90
15131;DHT22;7666;50.920;4.628;2023-04-28T06:45:21;12.00;99.90
15131;DHT22;7666;50.920;4.628;2023-04-28T06:48:07;12.10;99.90
15131;DHT22;7666;50.920;4.628;2023-04-28T06:50:53;12.20;99.90
15131;DHT22;7666;50.920;4.628;2023-04-28T06:53:39;12.30;99.90
15131;DHT22;7666;50.920;4.628;2023-04-28T06:56:25;12.40;99.90
15131;DHT22;7666;50.920;4.628;2023-04-28T06:59:11;12.50;99.90
15131;DHT22;7666;50.920;4.628;2023-04-28T07:01:57;12.50;99.90
15131;DHT22;7666;50.920;4.628;2023-04-28T07:04:43;12.60;99.90
15131;DHT22;7666;50.920;4.628;2023-04-28T07:07:30;12.80;99.90
15131;DHT22;7666;50.920;4.628;2023-04-28T07:10:16;12.90;99.90
15131;DHT22;7666;50.920;4.628;2023-04-28T07:13:02;13.00;99.90
15131;DHT22;7666;50.920;4.628;2023-04-28T07:15:48;13.10;99.90
15131;DHT22;7666;50.920;4.628;2023-04-28T07:18:34;13.30;99.90
15131;DHT22;7666;50.920;4.628;2023-04-28T07:21:20;13.40;99.90
15131;DHT22;7666;50.920;4.628;2023-04-28T07:24:06;13.50;99.90
15131;DHT22;7666;50.920;4.628;2023-04-28T07:26:52;13.50;99.90
15131;DHT22;7666;50.920;4.628;2023-04-28T07:29:38;13.70;99.90
15131;DHT22;7666;50.920;4.628;2023-04-28T07:32:24;13.70;99.90
15131;DHT22;7666;50.920;4.628;2023-04-28T07:35:10;13.80;99.90
15131;DHT22;7666;50.920;4.628;2023-04-28T07:37:56;13.80;99.90
15131;DHT22;7666;50.920;4.628;2023-04-28T07:40:42;13.80;99.90
15131;DHT22;7666;50.920;4.628;2023-04-28T07:43:29;13.90;99.90
15131;DHT22;7666;50.920;4.628;2023-04-28T07:46:15;13.90;99.90
15131;DHT22;7666;50.920;4.628;2023-04-28T07:49:01;13.90;99.90
15131;DHT22;7666;50.920;4.628;2023-04-28T07:51:47;13.90;99.90
15131;DHT22;7666;50.920;4.628;2023-04-28T07:54:34;13.90;99.90
15131;DHT22;7666;50.920;4.628;2023-04-28T07:57:20;14.00;99.90
15131;DHT22;7666;50.920;4.628;2023-04-28T08:00:06;14.10;99.90
15131;DHT22;7666;50.920;4.628;2023-04-28T08:02:53;14.30;99.90
15131;DHT22;7666;50.920;4.628;2023-04-28T08:05:39;14.80;99.90
15131;DHT22;7666;50.920;4.628;2023-04-28T08:08:25;15.40;99.90
15131;DHT22;7666;50.920;4.628;2023-04-28T08:11:11;16.10;99.90
15131;DHT22;7666;50.920;4.628;2023-04-28T08:13:58;16.50;99.90
15131;DHT22;7666;50.920;4.628;2023-04-28T08:16:47;16.70;99.90
15131;DHT22;7666;50.920;4.628;2023-04-28T08:19:33;16.60;99.90
15131;DHT22;7666;50.920;4.628;2023-04-28T08:22:19;16.40;99.90
15131;DHT22;7666;50.920;4.628;2023-04-28T08:25:06;16.10;99.90
15131;DHT22;7666;50.920;4.628;2023-04-28T08:27:52;15.90;99.90
15131;DHT22;7666;50.920;4.628;2023-04-28T08:30:38;15.70;99.90
15131;DHT22;7666;50.920;4.628;2023-04-28T08:33:24;15.70;99.90
15131;DHT22;7666;50.920;4.628;2023-04-28T08:36:10;15.60;99.90
15131;DHT22;7666;50.920;4.628;2023-04-28T08:39:02;15.50;99.90
15131;DHT22;7666;50.920;4.628;2023-04-28T08:41:51;15.40;99.90
15131;DHT22;7666;50.920;4.628;2023-04-28T08:44:38;15.40;99.90
15131;DHT22;7666;50.920;4.628;2023-04-28T08:47:34;15.50;99.90
15131;DHT22;7666;50.920;4.628;2023-04-28T08:50:21;15.60;99.90
15131;DHT22;7666;50.920;4.628;2023-04-28T08:53:08;15.60;99.90
15131;DHT22;7666;50.920;4.628;2023-04-28T08:55:57;15.70;99.90
15131;DHT22;7666;50.920;4.628;2023-04-28T08:58:43;15.70;99.90
15131;DHT22;7666;50.920;4.628;2023-04-28T09:01:30;15.70;99.90
15131;DHT22;7666;50.920;4.628;2023-04-28T09:04:16;15.70;99.90
15131;DHT22;7666;50.920;4.628;2023-04-28T09:07:02;15.80;99.90
15131;DHT22;7666;50.920;4.628;2023-04-28T09:09:48;15.80;99.90
15131;DHT22;7666;50.920;4.628;2023-04-28T09:12:37;15.90;99.90
15131;DHT22;7666;50.920;4.628;2023-04-28T09:15:37;16.10;99.90
15131;DHT22;7666;50.920;4.628;2023-04-28T09:18:26;16.10;99.90
15131;DHT22;7666;50.920;4.628;2023-04-28T09:21:12;16.10;99.90
15131;DHT22;7666;50.920;4.628;2023-04-28T09:23:58;16.00;99.90
15131;DHT22;7666;50.920;4.628;2023-04-28T09:26:47;16.00;99.90
15131;DHT22;7666;50.920;4.628;2023-04-28T09:29:36;15.90;99.90
15131;DHT22;7666;50.920;4.628;2023-04-28T09:32:22;15.90;99.90
15131;DHT22;7666;50.920;4.628;2023-04-28T09:35:08;16.00;99.90
15131;DHT22;7666;50.920;4.628;2023-04-28T09:37:58;16.00;99.90
15131;DHT22;7666;50.920;4.628;2023-04-28T09:41:01;16.20;99.90
15131;DHT22;7666;50.920;4.628;2023-04-28T09:43:47;16.40;99.90
15131;DHT22;7666;50.920;4.628;2023-04-28T09:46:33;16.70;99.90
15131;DHT22;7666;50.920;4.628;2023-04-28T09:49:19;16.80;99.90
15131;DHT22;7666;50.920;4.628;2023-04-28T09:52:12;17.00;99.90
15131;DHT22;7666;50.920;4.628;2023-04-28T09:55:01;17.20;99.90
15131;DHT22;7666;50.920;4.628;2023-04-28T09:57:48;17.30;99.90
15131;DHT22;7666;50.920;4.628;2023-04-28T10:00:37;17.50;99.90
15131;DHT22;7666;50.920;4.628;2023-04-28T10:03:29;17.80;99.90
15131;DHT22;7666;50.920;4.628;2023-04-28T10:06:15;18.00;99.90
15131;DHT22;7666;50.920;4.628;2023-04-28T10:09:02;17.90;99.90
15131;DHT22;7666;50.920;4.628;2023-04-28T10:11:48;17.70;99.90
15131;DHT22;7666;50.920;4.628;2023-04-28T10:14:36;17.60;99.90
15131;DHT22;7666;50.920;4.628;2023-04-28T10:17:22;17.40;99.90
15131;DHT22;7666;50.920;4.628;2023-04-28T10:20:14;17.30;99.90
15131;DHT22;7666;50.920;4.628;2023-04-28T10:26:20;17.30;99.90
15131;DHT22;7666;50.920;4.628;2023-04-28T10:29:11;17.50;99.90
15131;DHT22;7666;50.920;4.628;2023-04-28T10:38:10;17.90;99.90
15131;DHT22;7666;50.920;4.628;2023-04-28T10:40:57;18.10;99.90
15131;DHT22;7666;50.920;4.628;2023-04-28T10:43:47;18.00;99.90
15131;DHT22;7666;50.920;4.628;2023-04-28T10:47:04;18.00;99.90
15131;DHT22;7666;50.920;4.628;2023-04-28T10:55:31;17.60;99.90
15131;DHT22;7666;50.920;4.628;2023-04-28T11:04:11;17.30;99.90
15131;DHT22;7666;50.920;4.628;2023-04-28T11:07:10;17.60;99.90
15131;DHT22;7666;50.920;4.628;2023-04-28T11:09:59;17.80;99.90
15131;DHT22;7666;50.920;4.628;2023-04-28T11:16:08;18.20;99.90
15131;DHT22;7666;50.920;4.628;2023-04-28T11:19:00;18.20;99.90
15131;DHT22;7666;50.920;4.628;2023-04-28T11:21:51;18.10;99.90
15131;DHT22;7666;50.920;4.628;2023-04-28T11:24:37;17.90;99.90
15131;DHT22;7666;50.920;4.628;2023-04-28T11:27:28;17.70;99.90
15131;DHT22;7666;50.920;4.628;2023-04-28T11:30:21;17.60;99.90
15131;DHT22;7666;50.920;4.628;2023-04-28T11:33:07;17.50;99.90
15131;DHT22;7666;50.920;4.628;2023-04-28T11:35:54;17.40;99.90
15131;DHT22;7666;50.920;4.628;2023-04-28T11:38:43;17.30;99.90
15131;DHT22;7666;50.920;4.628;2023-04-28T11:41:30;17.10;99.90
15131;DHT22;7666;50.920;4.628;2023-04-28T11:44:18;17.10;99.90
15131;DHT22;7666;50.920;4.628;2023-04-28T11:47:05;16.90;99.90
15131;DHT22;7666;50.920;4.628;2023-04-28T11:49:52;16.80;99.90
15131;DHT22;7666;50.920;4.628;2023-04-28T11:52:50;16.70;99.90
15131;DHT22;7666;50.920;4.628;2023-04-28T11:55:36;16.60;99.90
15131;DHT22;7666;50.920;4.628;2023-04-28T11:58:22;16.60;99.90
15131;DHT22;7666;50.920;4.628;2023-04-28T12:01:10;16.60;99.90
15131;DHT22;7666;50.920;4.628;2023-04-28T12:03:56;16.40;99.90
15131;DHT22;7666;50.920;4.628;2023-04-28T12:06:42;16.40;99.90
15131;DHT22;7666;50.920;4.628;2023-04-28T12:09:29;16.30;99.90
15131;DHT22;7666;50.920;4.628;2023-04-28T12:12:29;16.30;99.90
15131;DHT22;7666;50.920;4.628;2023-04-28T12:15:19;16.40;99.90
15131;DHT22;7666;50.920;4.628;2023-04-28T12:18:09;16.20;99.90
15131;DHT22;7666;50.920;4.628;2023-04-28T12:20:56;16.10;99.90
15131;DHT22;7666;50.920;4.628;2023-04-28T12:23:42;16.10;99.90
15131;DHT22;7666;50.920;4.628;2023-04-28T12:26:28;16.00;99.90
15131;DHT22;7666;50.920;4.628;2023-04-28T12:29:37;16.00;99.90
15131;DHT22;7666;50.920;4.628;2023-04-28T12:32:39;16.10;99.90
15131;DHT22;7666;50.920;4.628;2023-04-28T12:35:27;16.00;99.90
15131;DHT22;7666;50.920;4.628;2023-04-28T12:38:13;16.10;99.90
15131;DHT22;7666;50.920;4.628;2023-04-28T12:41:00;16.20;99.90
15131;DHT22;7666;50.920;4.628;2023-04-28T12:43:46;16.20;99.90
15131;DHT22;7666;50.920;4.628;2023-04-28T12:46:32;16.30;99.90
15131;DHT22;7666;50.920;4.628;2023-04-28T12:49:19;16.30;99.90
15131;DHT22;7666;50.920;4.628;2023-04-28T12:52:06;16.20;99.90
15131;DHT22;7666;50.920;4.628;2023-04-28T12:54:52;16.00;99.90
15131;DHT22;7666;50.920;4.628;2023-04-28T12:57:38;16.00;99.90
15131;DHT22;7666;50.920;4.628;2023-04-28T13:00:24;16.00;99.90
15131;DHT22;7666;50.920;4.628;2023-04-28T13:03:11;16.00;99.90
15131;DHT22;7666;50.920;4.628;2023-04-28T13:05:56;15.90;99.90
15131;DHT22;7666;50.920;4.628;2023-04-28T13:08:43;16.00;99.90
15131;DHT22;7666;50.920;4.628;2023-04-28T13:11:29;15.90;99.90
15131;DHT22;7666;50.920;4.628;2023-04-28T13:14:16;15.80;99.90
15131;DHT22;7666;50.920;4.628;2023-04-28T13:17:02;15.60;99.90
15131;DHT22;7666;50.920;4.628;2023-04-28T13:19:48;15.60;99.90
15131;DHT22;7666;50.920;4.628;2023-04-28T13:22:34;15.70;99.90
15131;DHT22;7666;50.920;4.628;2023-04-28T13:25:20;15.90;99.90
15131;DHT22;7666;50.920;4.628;2023-04-28T13:28:07;15.90;99.90
15131;DHT22;7666;50.920;4.628;2023-04-28T13:30:52;15.90;99.90
15131;DHT22;7666;50.920;4.628;2023-04-28T13:33:38;16.00;99.90
15131;DHT22;7666;50.920;4.628;2023-04-28T13:36:24;16.10;99.90
15131;DHT22;7666;50.920;4.628;2023-04-28T13:39:11;16.20;99.90
15131;DHT22;7666;50.920;4.628;2023-04-28T13:41:59;16.10;99.90
15131;DHT22;7666;50.920;4.628;2023-04-28T13:44:46;16.10;99.90
15131;DHT22;7666;50.920;4.628;2023-04-28T13:47:33;15.90;99.90
15131;DHT22;7666;50.920;4.628;2023-04-28T13:50:20;15.80;99.90
15131;DHT22;7666;50.920;4.628;2023-04-28T13:53:06;15.80;99.90
15131;DHT22;7666;50.920;4.628;2023-04-28T13:55:53;15.70;99.90
15131;DHT22;7666;50.920;4.628;2023-04-28T13:58:42;15.70;99.90
15131;DHT22;7666;50.920;4.628;2023-04-28T14:01:28;15.70;99.90
15131;DHT22;7666;50.920;4.628;2023-04-28T14:04:14;15.90;99.90
15131;DHT22;7666;50.920;4.628;2023-04-28T14:07:00;15.90;99.90
15131;DHT22;7666;50.920;4.628;2023-04-28T14:09:48;15.90;99.90
15131;DHT22;7666;50.920;4.628;2023-04-28T14:12:34;16.00;99.90
15131;DHT22;7666;50.920;4.628;2023-04-28T14:15:20;15.90;99.90
15131;DHT22;7666;50.920;4.628;2023-04-28T14:18:06;15.80;99.90
15131;DHT22;7666;50.920;4.628;2023-04-28T14:20:54;15.70;99.90
15131;DHT22;7666;50.920;4.628;2023-04-28T14:23:40;15.70;99.90
15131;DHT22;7666;50.920;4.628;2023-04-28T14:26:26;15.70;99.90
15131;DHT22;7666;50.920;4.628;2023-04-28T14:29:13;15.70;99.90
15131;DHT22;7666;50.920;4.628;2023-04-28T14:31:59;15.70;99.90
15131;DHT22;7666;50.920;4.628;2023-04-28T14:34:46;15.80;99.90
15131;DHT22;7666;50.920;4.628;2023-04-28T14:37:34;15.90;99.90
15131;DHT22;7666;50.920;4.628;2023-04-28T14:40:20;15.90;99.90
15131;DHT22;7666;50.920;4.628;2023-04-28T14:43:06;15.90;99.90
15131;DHT22;7666;50.920;4.628;2023-04-28T14:45:52;15.90;99.90
15131;DHT22;7666;50.920;4.628;2023-04-28T14:48:39;15.90;99.90
15131;DHT22;7666;50.920;4.628;2023-04-28T14:51:25;15.90;99.90
15131;DHT22;7666;50.920;4.628;2023-04-28T14:54:11;15.90;99.90
15131;DHT22;7666;50.920;4.628;2023-04-28T14:56:57;15.90;99.90
15131;DHT22;7666;50.920;4.628;2023-04-28T14:59:43;16.00;99.90
15131;DHT22;7666;50.920;4.628;2023-04-28T15:02:29;16.10;99.90
15131;DHT22;7666;50.920;4.628;2023-04-28T15:05:15;16.10;99.90
15131;DHT22;7666;50.920;4.628;2023-04-28T15:08:01;16.10;99.90
15131;DHT22;7666;50.920;4.628;2023-04-28T15:10:47;16.00;99.90
15131;DHT22;7666;50.920;4.628;2023-04-28T15:13:33;16.00;99.90
15131;DHT22;7666;50.920;4.628;2023-04-28T15:16:19;16.00;99.90
15131;DHT22;7666;50.920;4.628;2023-04-28T15:19:06;16.10;99.90
15131;DHT22;7666;50.920;4.628;2023-04-28T15:21:52;16.10;99.90
15131;DHT22;7666;50.920;4.628;2023-04-28T15:24:38;16.30;99.90
15131;DHT22;7666;50.920;4.628;2023-04-28T15:27:24;16.40;99.90
15131;DHT22;7666;50.920;4.628;2023-04-28T15:30:10;16.50;99.90
15131;DHT22;7666;50.920;4.628;2023-04-28T15:32:56;16.50;99.90
15131;DHT22;7666;50.920;4.628;2023-04-28T15:35:43;16.60;99.90
15131;DHT22;7666;50.920;4.628;2023-04-28T15:38:29;16.60;99.90
15131;DHT22;7666;50.920;4.628;2023-04-28T15:41:16;16.60;99.90
15131;DHT22;7666;50.920;4.628;2023-04-28T15:44:03;16.50;99.90
15131;DHT22;7666;50.920;4.628;2023-04-28T15:46:49;16.50;99.90
15131;DHT22;7666;50.920;4.628;2023-04-28T15:49:37;16.50;99.90
15131;DHT22;7666;50.920;4.628;2023-04-28T15:52:23;16.50;99.90
15131;DHT22;7666;50.920;4.628;2023-04-28T15:55:09;16.50;99.90
15131;DHT22;7666;50.920;4.628;2023-04-28T15:57:55;16.40;99.90
15131;DHT22;7666;50.920;4.628;2023-04-28T16:00:41;16.40;99.90
15131;DHT22;7666;50.920;4.628;2023-04-28T16:03:29;16.30;99.90
15131;DHT22;7666;50.920;4.628;2023-04-28T16:06:15;16.20;99.90
15131;DHT22;7666;50.920;4.628;2023-04-28T16:09:01;16.20;99.90
15131;DHT22;7666;50.920;4.628;2023-04-28T16:11:49;16.20;99.90
15131;DHT22;7666;50.920;4.628;2023-04-28T16:14:35;16.20;99.90
15131;DHT22;7666;50.920;4.628;2023-04-28T16:17:22;16.10;99.90
15131;DHT22;7666;50.920;4.628;2023-04-28T16:20:09;16.10;99.90
15131;DHT22;7666;50.920;4.628;2023-04-28T16:22:55;16.10;99.90
15131;DHT22;7666;50.920;4.628;2023-04-28T16:25:41;16.00;99.90
15131;DHT22;7666;50.920;4.628;2023-04-28T16:28:27;16.00;99.90
15131;DHT22;7666;50.920;4.628;2023-04-28T16:31:13;15.90;99.90
15131;DHT22;7666;50.920;4.628;2023-04-28T16:33:59;15.80;99.90
15131;DHT22;7666;50.920;4.628;2023-04-28T16:36:45;15.70;99.90
15131;DHT22;7666;50.920;4.628;2023-04-28T16:39:32;15.70;99.90
15131;DHT22;7666;50.920;4.628;2023-04-28T16:42:18;15.60;99.90
15131;DHT22;7666;50.920;4.628;2023-04-28T16:45:07;15.50;99.90
15131;DHT22;7666;50.920;4.628;2023-04-28T16:47:54;15.50;99.90
15131;DHT22;7666;50.920;4.628;2023-04-28T16:50:40;15.50;99.90
15131;DHT22;7666;50.920;4.628;2023-04-28T16:53:26;15.50;99.90
15131;DHT22;7666;50.920;4.628;2023-04-28T16:56:12;15.40;99.90
15131;DHT22;7666;50.920;4.628;2023-04-28T16:58:58;15.40;99.90
15131;DHT22;7666;50.920;4.628;2023-04-28T17:01:44;15.40;99.90
15131;DHT22;7666;50.920;4.628;2023-04-28T17:04:31;15.40;99.90
15131;DHT22;7666;50.920;4.628;2023-04-28T17:07:17;15.40;99.90
15131;DHT22;7666;50.920;4.628;2023-04-28T17:10:03;15.30;99.90
15131;DHT22;7666;50.920;4.628;2023-04-28T17:12:50;15.20;99.90
15131;DHT22;7666;50.920;4.628;2023-04-28T17:15:36;15.20;99.90
15131;DHT22;7666;50.920;4.628;2023-04-28T17:18:24;15.10;99.90
15131;DHT22;7666;50.920;4.628;2023-04-28T17:21:10;15.20;99.90
15131;DHT22;7666;50.920;4.628;2023-04-28T17:23:57;15.20;99.90
15131;DHT22;7666;50.920;4.628;2023-04-28T17:26:43;15.10;99.90
15131;DHT22;7666;50.920;4.628;2023-04-28T17:29:29;15.10;99.90
15131;DHT22;7666;50.920;4.628;2023-04-28T17:32:16;15.00;99.90
15131;DHT22;7666;50.920;4.628;2023-04-28T17:35:02;15.00;99.90
15131;DHT22;7666;50.920;4.628;2023-04-28T17:37:48;14.90;99.90
15131;DHT22;7666;50.920;4.628;2023-04-28T17:40:34;14.90;99.90
15131;DHT22;7666;50.920;4.628;2023-04-28T17:43:20;14.90;99.90
15131;DHT22;7666;50.920;4.628;2023-04-28T17:46:06;14.80;99.90
15131;DHT22;7666;50.920;4.628;2023-04-28T17:48:52;14.80;99.90
15131;DHT22;7666;50.920;4.628;2023-04-28T17:51:38;14.80;99.90
15131;DHT22;7666;50.920;4.628;2023-04-28T17:54:24;14.80;99.90
15131;DHT22;7666;50.920;4.628;2023-04-28T17:57:10;14.70;99.90
15131;DHT22;7666;50.920;4.628;2023-04-28T17:59:57;14.60;99.90
15131;DHT22;7666;50.920;4.628;2023-04-28T18:02:43;14.60;99.90
15131;DHT22;7666;50.920;4.628;2023-04-28T18:05:29;14.50;99.90
15131;DHT22;7666;50.920;4.628;2023-04-28T18:08:16;14.50;99.90
15131;DHT22;7666;50.920;4.628;2023-04-28T18:11:01;14.40;99.90
15131;DHT22;7666;50.920;4.628;2023-04-28T18:13:48;14.40;99.90
15131;DHT22;7666;50.920;4.628;2023-04-28T18:16:34;14.30;99.90
15131;DHT22;7666;50.920;4.628;2023-04-28T18:19:20;14.30;99.90